Flight Track Log - Related Links

Times and Time Zones

All times are in EDT time to prevent confusion due to time zone crossing. See the KAL1331 flight status page for this flight to view local times or setup timezone preferences in your user account.

Time Position Orientation Groundspeed Altitude Reporting Facility
EDT Latitude Longitude Course Direction KTS MPH feet Rate Location/Type
Thu 06:19:00 PM 37.2071 126.9005 166° South  Level Estimated
Thu 06:19:11 PM 37.5090 126.6570 166° South 276 318 9,300  Level FlightAware
Thu 06:20:00 PM 37.1193 126.9279 166° South  Level Estimated
Thu 06:20:16 PM 37.4230 126.6750 171° South 341 392 11,700  Level FlightAware
Thu 06:21:11 PM 37.3310 126.6940 171° South 357 411 14,900 3,396 Climbing FlightAware
Thu 06:22:02 PM 37.2400 126.7140 170° South 379 436 17,700 3,095 Climbing FlightAware
Thu 06:22:46 PM 37.1620 126.7310 170° South 391 450 19,800 1,500 Climbing FlightAware
Thu 06:23:34 PM 37.0820 126.7480 170° South 403 464 20,000 122 Climbing FlightAware
Thu 06:24:24 PM 37.0040 126.7660 170° South 403 464 20,000  Level FlightAware
Thu 06:25:00 PM 36.9480 126.7780 170° South 403 464 20,000  Level FlightAware
Thu 06:25:48 PM 36.8730 126.7940 170° South 403 464 20,000  Level FlightAware
Thu 06:26:24 PM 36.8160 126.8070 170° South 403 464 20,000  Level FlightAware
Thu 06:27:24 PM 36.7230 126.8270 170° South 403 464 20,000  Level FlightAware
Thu 06:30:00 PM 36.5075 126.9193 161° South  Level Estimated
Thu 06:31:00 PM 36.4246 126.9546 161° South  Level Estimated
Thu 06:32:00 PM 36.3416 126.9899 161° South  Level Estimated
Thu 06:33:00 PM 36.2587 127.0251 161° South  Level Estimated
Thu 06:34:00 PM 36.1758 127.0602 161° South  Level Estimated
Thu 06:35:00 PM 36.0928 127.0952 161° South  Level Estimated
Thu 06:36:00 PM 36.0099 127.1302 161° South  Level Estimated
Thu 06:37:00 PM 35.9269 127.1651 161° South  Level Estimated
Thu 06:38:00 PM 35.8439 127.1999 161° South  Level Estimated
Thu 06:39:00 PM 35.7609 127.2347 161° South  Level Estimated
Thu 06:40:00 PM 35.6779 127.2694 161° South  Level Estimated
Thu 06:41:00 PM 35.5949 127.3040 161° South  Level Estimated
Thu 06:42:00 PM 35.5119 127.3385 161° South  Level Estimated
Thu 06:43:00 PM 35.4289 127.3730 161° South  Level Estimated
Thu 06:44:00 PM 35.3458 127.4074 161° South  Level Estimated
Thu 06:45:00 PM 35.2628 127.4417 161° South  Level Estimated
Thu 06:46:00 PM 35.1797 127.4759 161° South  Level Estimated
Thu 06:47:00 PM 35.0966 127.5101 161° South  Level Estimated
Thu 06:48:00 PM 35.0136 127.5442 161° South  Level Estimated
Thu 06:49:00 PM 34.9305 127.5783 161° South  Level Estimated
Thu 06:50:00 PM 34.8474 127.6122 161° South  Level Estimated
Thu 06:51:00 PM 34.8398 127.6153 161° South  Level Estimated
Thu 06:52:00 PM 34.8398 127.6153 180° South  Level Estimated
Thu 06:53:00 PM 34.8398 127.6153 180° South  Level Estimated
Thu 06:54:00 PM 34.8398 127.6153 180° South  Level Estimated
Thu 06:55:00 PM 34.8398 127.6153 180° South  Level Estimated
Thu 06:56:00 PM 34.8398 127.6153 180° South  Level Estimated
Thu 06:57:00 PM 34.8398 127.6153 180° South  Level Estimated
Thu 06:58:00 PM 34.8398 127.6153 180° South  Level Estimated
Thu 06:59:00 PM 34.8398 127.6153 180° South  Level Estimated
Thu 07:00:00 PM 34.8398 127.6153 180° South  Level Estimated

Login

Don't have an account? Register now (free) for customized features, flight alerts, and more!